Time;durP1;ratioP1;P1;durP2;ratioP2;P2;SDS_P1;SDS_P2;PMS_P1;PMS_P2;Temp;Humidity;BMP_temperature;BMP_pressure;BME280_temperature;BME280_humidity;BME280_pressure;Samples;Min_cycle;Max_cycle;Signal;HPM_P1;HPM_P2
2022/12/25 00:02:10;;;;;;;5.35;3.53;;;;;;;2.66;69.34;99907.22;4897457;29;20044;-80
2022/12/25 00:04:37;;;;;;;5.35;3.03;;;;;;;2.83;69.46;99929.09;4896577;29;20108;-79
2022/12/25 00:07:03;;;;;;;6.45;3.30;;;;;;;2.53;68.93;99906.94;4897206;29;20562;-80
2022/12/25 00:09:29;;;;;;;4.63;3.20;;;;;;;2.79;69.52;99945.28;4895920;29;20144;-81
2022/12/25 00:11:55;;;;;;;4.47;3.38;;;;;;;2.67;68.94;99939.81;4895201;29;20041;-80
2022/12/25 00:14:21;;;;;;;4.13;3.10;;;;;;;2.72;68.03;99945.94;4897481;29;20044;-81
2022/12/25 00:16:47;;;;;;;4.30;3.15;;;;;;;2.67;68.60;99950.97;4883805;29;20053;-78
2022/12/25 00:19:13;;;;;;;4.72;3.13;;;;;;;2.41;68.93;99896.38;4907787;29;20072;-80
2022/12/25 00:21:39;;;;;;;3.70;2.75;;;;;;;2.27;68.60;99880.59;4912291;29;20099;-79
2022/12/25 00:24:05;;;;;;;3.53;2.45;;;;;;;2.52;68.82;99914.63;4906994;29;20044;-78
2022/12/25 00:26:31;;;;;;;3.72;2.72;;;;;;;2.85;69.12;99962.53;4889696;29;20055;-81
2022/12/25 00:28:58;;;;;;;2.95;2.58;;;;;;;2.74;68.81;99930.59;4911239;29;20080;-79
2022/12/25 00:31:25;;;;;;;3.45;2.58;;;;;;;2.85;68.57;99941.97;4898842;29;20084;-81
2022/12/25 00:33:52;;;;;;;3.25;2.38;;;;;;;2.66;68.33;99907.22;4899948;29;20040;-80
2022/12/25 00:36:20;;;;;;;4.22;2.78;;;;;;;2.78;68.27;99937.50;4899480;29;20077;-82
2022/12/25 00:38:47;;;;;;;3.53;2.90;;;;;;;2.82;68.40;99935.06;4886674;29;20049;-80
2022/12/25 00:41:15;;;;;;;3.75;2.85;;;;;;;2.92;68.35;99931.03;4899189;29;20528;-80
2022/12/25 00:43:41;;;;;;;3.05;2.50;;;;;;;3.21;68.36;99992.56;4899993;29;20421;-79
2022/12/25 00:46:09;;;;;;;3.33;2.22;;;;;;;2.65;68.13;99919.22;4899910;29;20044;-78
2022/12/25 00:48:37;;;;;;;2.35;2.00;;;;;;;2.83;67.56;99974.50;4899777;29;20398;-80
2022/12/25 00:51:06;;;;;;;4.97;2.65;;;;;;;2.96;67.80;99993.66;4899807;29;20134;-79
2022/12/25 00:53:32;;;;;;;2.42;2.05;;;;;;;2.64;67.46;99958.59;4899436;29;20094;-80
2022/12/25 00:56:03;;;;;;;2.35;1.60;;;;;;;2.77;67.88;99997.44;4898234;29;20077;-80
2022/12/25 00:58:32;;;;;;;2.65;1.70;;;;;;;2.64;67.83;99983.44;4897883;29;20044;-81
2022/12/25 01:00:58;;;;;;;2.25;1.70;;;;;;;2.65;67.06;100006.59;4898137;29;20052;-81
2022/12/25 01:03:25;;;;;;;2.15;1.60;;;;;;;2.43;67.45;99971.75;4898321;29;20162;-80
2022/12/25 01:05:59;;;;;;;3.65;1.45;;;;;;;2.55;67.68;99994.31;4882689;29;20127;-79
2022/12/25 01:08:25;;;;;;;2.30;1.60;;;;;;;2.70;67.38;100025.59;4922719;29;20044;-81
2022/12/25 01:10:59;;;;;;;3.05;2.00;;;;;;;2.52;67.08;99992.56;4898231;29;20070;-81
2022/12/25 01:13:27;;;;;;;2.63;1.52;;;;;;;2.67;67.37;100028.06;4899742;29;20036;-82
2022/12/25 01:15:53;;;;;;;2.03;1.45;;;;;;;2.71;66.69;100039.28;4899465;29;20108;-80
2022/12/25 01:18:20;;;;;;;2.67;1.73;;;;;;;2.54;66.64;100019.16;4897960;29;20518;-81
2022/12/25 01:20:46;;;;;;;2.85;1.58;;;;;;;2.61;66.59;100021.91;4897754;29;20044;-80
2022/12/25 01:23:13;;;;;;;3.00;1.80;;;;;;;2.38;66.33;100005.00;4913525;29;20052;-79
2022/12/25 01:25:40;;;;;;;1.98;1.70;;;;;;;2.60;66.28;100045.84;4929163;29;20052;-83
2022/12/25 01:28:06;;;;;;;2.25;1.75;;;;;;;2.45;66.24;100046.28;4898981;29;20084;-80
2022/12/25 01:30:32;;;;;;;2.50;1.88;;;;;;;2.06;66.57;100002.44;4915472;29;20048;-79
2022/12/25 01:32:58;;;;;;;2.47;1.80;;;;;;;2.23;66.08;100054.25;4938501;29;20044;-81
2022/12/25 01:35:24;;;;;;;3.15;2.17;;;;;;;1.99;66.52;100026.16;4916882;29;20044;-80
2022/12/25 01:37:51;;;;;;;3.08;2.00;;;;;;;1.92;66.09;100047.31;4899715;29;20055;-80
2022/12/25 01:40:17;;;;;;;2.03;1.83;;;;;;;1.96;66.32;100072.28;4890836;29;20097;-79
2022/12/25 01:42:43;;;;;;;3.20;1.80;;;;;;;1.52;66.00;100002.50;4907023;29;20502;-81
2022/12/25 01:45:16;;;;;;;4.82;1.77;;;;;;;1.90;65.94;100065.25;4921717;29;20226;-79
2022/12/25 01:47:41;;;;;;;1.92;1.50;;;;;;;1.77;66.08;100063.13;4900596;29;20064;-80
2022/12/25 01:50:08;;;;;;;2.42;1.80;;;;;;;1.86;66.05;100083.97;4898677;29;20506;-80
2022/12/25 01:52:34;;;;;;;3.95;1.60;;;;;;;1.71;65.79;100056.13;4929293;29;20041;-80
2022/12/25 01:55:08;;;;;;;1.80;1.58;;;;;;;1.79;66.00;100082.91;4896798;29;20108;-80
2022/12/25 01:57:37;;;;;;;2.03;1.38;;;;;;;1.88;66.00;100095.16;4897163;29;20041;-80
2022/12/25 02:00:05;;;;;;;2.70;1.38;;;;;;;1.85;65.63;100091.63;4898367;29;20041;-81
2022/12/25 02:02:32;;;;;;;2.55;1.60;;;;;;;1.53;64.85;100051.31;4898189;29;20096;-80
2022/12/25 02:05:11;;;;;;;2.47;1.30;;;;;;;1.46;65.36;100052.78;4928419;29;20050;-81
2022/12/25 02:07:40;;;;;;;4.53;1.50;;;;;;;1.81;65.32;100106.03;4926470;29;20083;-80
2022/12/25 02:10:08;;;;;;;2.45;1.50;;;;;;;1.38;65.08;100063.59;4897019;29;20040;-81
2022/12/25 02:12:34;;;;;;;3.05;1.65;;;;;;;1.62;65.21;100113.16;4897156;29;20040;-79
2022/12/25 02:15:07;;;;;;;2.50;1.58;;;;;;;1.43;64.87;100101.44;4899019;29;20047;-81
2022/12/25 02:17:52;;;;;;;3.00;1.90;;;;;;;1.32;65.14;100115.56;4907480;29;20049;-80
2022/12/25 02:20:55;;;;;;;3.60;1.80;;;;;;;1.15;65.08;100104.72;4902979;29;20062;-81
2022/12/25 02:23:55;;;;;;;2.85;1.60;;;;;;;1.03;65.07;100125.69;4924858;29;20048;-80
2022/12/25 02:26:47;;;;;;;2.63;1.65;;;;;;;0.89;65.10;100128.66;4905068;29;20037;-80
2022/12/25 02:29:23;;;;;;;2.35;1.58;;;;;;;0.81;64.84;100135.19;4914682;29;20056;-81
2022/12/25 02:32:14;;;;;;;2.88;1.80;;;;;;;0.71;64.70;100138.25;4916292;29;20044;-82
2022/12/25 02:34:50;;;;;;;2.30;1.80;;;;;;;0.66;64.88;100145.78;4910391;29;20087;-80
2022/12/25 02:37:26;;;;;;;2.83;1.80;;;;;;;0.60;65.30;100150.66;4901113;29;20942;-80
2022/12/25 02:40:18;;;;;;;6.97;4.07;;;;;;;0.43;64.95;100119.28;4898488;29;20088;-80
2022/12/25 03:12:01;;;;;;;2.97;2.22;;;;;;;1.37;64.21;100136.22;4914171;29;20050;-81
2022/12/25 03:17:12;;;;;;;3.85;2.20;;;;;;;1.51;64.15;100186.31;4899399;29;20108;-81
2022/12/25 03:27:57;;;;;;;2.78;2.22;;;;;;;1.59;63.89;100207.09;4920654;29;20110;-81
2022/12/25 03:35:21;;;;;;;6.47;3.47;;;;;;;1.59;63.64;100218.22;4952304;29;20052;-80
2022/12/25 04:37:55;;;;;;;3.60;2.38;;;;;;;0.90;62.18;100266.22;4902057;29;20048;-81
2022/12/25 04:40:27;;;;;;;2.67;2.40;;;;;;;1.00;62.19;100294.75;4899632;29;20506;-81
2022/12/25 04:42:53;;;;;;;2.83;2.50;;;;;;;0.85;62.51;100272.00;4901318;29;20072;-81
2022/12/25 04:45:19;;;;;;;4.72;2.60;;;;;;;0.81;62.55;100247.06;4902938;29;20114;-81
2022/12/25 04:47:44;;;;;;;4.75;2.72;;;;;;;1.07;62.35;100299.28;4899677;29;20048;-82
2022/12/25 04:50:10;;;;;;;3.97;2.65;;;;;;;1.14;62.10;100303.84;4899452;29;20466;-80
2022/12/25 04:52:38;;;;;;;5.78;3.00;;;;;;;1.17;62.31;100298.84;4898888;29;20112;-80
2022/12/25 04:55:05;;;;;;;2.85;2.38;;;;;;;0.95;62.18;100276.63;4883225;29;20045;-82
2022/12/25 04:57:32;;;;;;;3.80;2.50;;;;;;;0.72;61.96;100252.72;4882610;29;20083;-82
2022/12/25 04:59:57;;;;;;;2.90;2.35;;;;;;;1.07;62.10;100308.69;4898234;29;20040;-81
2022/12/25 05:02:23;;;;;;;3.28;2.58;;;;;;;1.03;61.89;100316.25;4867323;29;20069;-83
2022/12/25 05:04:49;;;;;;;3.67;2.58;;;;;;;0.68;61.55;100258.53;4899552;29;20045;-79
2022/12/25 05:07:15;;;;;;;3.63;2.80;;;;;;;0.98;61.46;100339.97;4913949;29;20044;-80
2022/12/25 05:09:41;;;;;;;4.55;2.70;;;;;;;0.62;61.60;100294.13;4898318;29;20404;-83
2022/12/25 05:12:09;;;;;;;5.45;2.97;;;;;;;0.81;61.83;100323.94;4898551;29;20083;-81
2022/12/25 05:14:35;;;;;;;18.48;9.52;;;;;;;0.72;61.85;100324.44;4902007;29;20598;-80
2022/12/25 05:17:01;;;;;;;12.85;6.15;;;;;;;0.91;61.80;100333.72;4908031;29;20055;-79
2022/12/25 05:19:27;;;;;;;3.13;2.75;;;;;;;0.76;61.34;100331.44;4898184;29;20430;-78
2022/12/25 05:21:54;;;;;;;4.53;2.83;;;;;;;0.54;60.71;100306.66;4900094;29;20051;-80
2022/12/25 05:24:23;;;;;;;3.97;2.72;;;;;;;0.93;61.44;100375.66;4899333;29;20094;-80
2022/12/25 05:26:49;;;;;;;5.07;3.08;;;;;;;0.94;61.54;100385.09;4882511;29;20517;-81
2022/12/25 05:29:15;;;;;;;5.18;2.80;;;;;;;0.74;61.18;100359.56;4898905;29;20048;-81
2022/12/25 05:31:41;;;;;;;4.50;3.08;;;;;;;0.77;61.00;100346.00;4897860;29;20044;-80
2022/12/25 05:34:08;;;;;;;7.00;3.42;;;;;;;0.86;60.65;100363.44;4898183;29;20042;-83
2022/12/25 05:36:34;;;;;;;4.97;3.40;;;;;;;0.69;60.66;100339.69;4883284;29;20052;-80
2022/12/25 05:39:00;;;;;;;4.30;3.28;;;;;;;0.94;60.80;100390.22;4898956;29;20048;-81
2022/12/25 05:41:26;;;;;;;5.13;2.90;;;;;;;0.73;60.90;100356.94;4883416;29;20032;-80
2022/12/25 05:43:51;;;;;;;5.10;3.25;;;;;;;0.78;60.54;100368.22;4898037;29;20127;-77
2022/12/25 05:46:30;;;;;;;6.35;3.60;;;;;;;0.95;60.94;100391.09;4898183;29;20068;-78
2022/12/25 05:52:01;;;;;;;6.18;3.50;;;;;;;0.60;60.64;100325.69;4899152;29;20056;-80
2022/12/25 05:54:27;;;;;;;6.63;3.60;;;;;;;0.98;60.39;100389.53;4897810;29;20093;-80
2022/12/25 05:56:53;;;;;;;4.70;3.20;;;;;;;1.17;60.26;100433.81;4898707;29;20055;-82
2022/12/25 05:59:22;;;;;;;6.88;3.80;;;;;;;1.08;60.03;100403.56;4898202;29;20048;-81
2022/12/25 06:02:09;;;;;;;7.22;3.63;;;;;;;0.73;60.07;100356.94;4898542;29;20040;-83
2022/12/25 06:04:44;;;;;;;4.05;3.28;;;;;;;0.06;59.84;100249.28;4889411;29;20130;-82
2022/12/25 06:07:29;;;;;;;4.63;3.83;;;;;;;-0.23;59.82;100225.94;4902241;29;20040;-82
2022/12/25 06:09:55;;;;;;;5.18;3.70;;;;;;;0.83;59.71;100400.03;4900235;29;20036;-78
2022/12/25 06:12:21;;;;;;;5.80;3.92;;;;;;;1.05;59.98;100445.34;4900049;29;20041;-81
2022/12/25 06:14:53;;;;;;;6.35;3.72;;;;;;;0.55;60.23;100365.59;4897540;29;20462;-80
2022/12/25 06:18:08;;;;;;;6.45;3.97;;;;;;;1.02;59.80;100447.78;4886225;29;20047;-81
2022/12/25 06:27:51;;;;;;;6.50;4.00;;;;;;;-0.55;59.53;100217.78;4883885;29;20561;-82
2022/12/25 06:30:33;;;;;;;7.32;3.70;;;;;;;0.25;60.36;100355.88;4886103;29;20060;-81
2022/12/25 06:33:11;;;;;;;6.82;3.33;;;;;;;-0.26;59.84;100265.84;4899774;29;20028;-81
2022/12/25 06:36:11;;;;;;;4.50;3.42;;;;;;;-0.24;60.08;100261.69;4898184;29;20055;-83
2022/12/25 06:39:37;;;;;;;5.60;3.45;;;;;;;0.40;59.63;100390.59;4840174;29;20436;-79
2022/12/25 06:42:07;;;;;;;8.18;3.40;;;;;;;0.74;59.75;100435.56;4840968;29;20547;-79
2022/12/25 06:45:10;;;;;;;4.18;3.38;;;;;;;1.03;60.06;100479.41;4828583;29;20468;-82
2022/12/25 06:55:14;;;;;;;4.95;3.40;;;;;;;-0.04;58.94;100314.56;4845881;29;20106;-81
2022/12/25 06:58:21;;;;;;;6.07;3.55;;;;;;;0.98;59.70;100501.44;4860053;29;20060;-79
2022/12/25 07:02:00;;;;;;;10.27;5.75;;;;;;;0.24;59.49;100349.00;4897669;29;20080;-80
2022/12/25 07:05:13;;;;;;;5.47;3.80;;;;;;;-0.25;58.54;100267.59;4882696;29;20060;-80
2022/12/25 07:25:23;;;;;;;5.28;3.47;;;;;;;0.79;58.66;100444.28;4781130;29;20178;-83
2022/12/25 07:28:28;;;;;;;5.22;3.80;;;;;;;0.05;58.44;100305.53;4786171;29;20205;-81
2022/12/25 07:31:56;;;;;;;;;;;;;;;;;;;;;
2022/12/25 07:36:19;;;;;;;5.43;3.55;;;;;;;1.38;57.41;100514.97;4819793;29;20290;-84
2022/12/25 07:38:49;;;;;;;5.53;3.75;;;;;;;1.34;58.45;100531.94;4844656;29;20086;-82
2022/12/25 07:45:08;;;;;;;4.82;3.67;;;;;;;0.09;58.49;100292.91;4895324;29;20052;-81
2022/12/25 07:47:38;;;;;;;5.70;3.45;;;;;;;1.58;58.18;100567.09;4872627;29;20498;-83
2022/12/25 07:50:10;;;;;;;5.38;3.50;;;;;;;0.80;58.00;100405.03;4884428;29;20063;-81
2022/12/25 07:52:37;;;;;;;4.70;3.85;;;;;;;1.67;58.33;100544.34;4872814;29;20045;-81
2022/12/25 07:55:04;;;;;;;4.63;3.65;;;;;;;0.77;57.96;100401.47;4882954;29;20057;-82
2022/12/25 07:57:56;;;;;;;6.43;3.75;;;;;;;1.80;57.99;100549.16;4887391;29;20073;-83
2022/12/25 08:05:01;;;;;;;4.45;3.65;;;;;;;1.10;57.97;100440.41;4891383;29;20041;-83
2022/12/25 08:07:30;;;;;;;6.20;3.35;;;;;;;0.91;57.55;100392.66;4892419;29;20056;-84
2022/12/25 08:09:58;;;;;;;56.17;25.85;;;;;;;1.17;57.72;100454.34;4920825;29;20066;-83
2022/12/25 08:12:27;;;;;;;6.47;4.18;;;;;;;0.85;57.64;100400.97;4899183;29;20020;-83
2022/12/25 08:15:28;;;;;;;7.45;4.80;;;;;;;1.34;57.99;100480.66;4901988;29;20032;-84
2022/12/25 08:18:24;;;;;;;6.68;3.67;;;;;;;1.73;57.66;100544.59;4919966;29;20033;-84
2022/12/25 08:29:38;;;;;;;4.70;3.33;;;;;;;0.47;57.79;100420.78;4913825;29;20087;-82
2022/12/25 08:32:10;;;;;;;5.78;3.72;;;;;;;0.62;57.66;100448.72;4918187;29;20048;-83
2022/12/25 08:34:42;;;;;;;4.22;3.25;;;;;;;1.01;57.18;100532.31;4901737;29;20075;-81
2022/12/25 08:37:15;;;;;;;8.90;2.95;;;;;;;0.65;57.29;100483.84;4880933;29;20029;-84
2022/12/25 08:39:50;;;;;;;6.55;3.25;;;;;;;1.28;57.67;100612.09;4924317;29;20032;-84
2022/12/25 08:42:34;;;;;;;5.85;3.33;;;;;;;0.68;57.19;100499.34;4944929;29;20059;-82
2022/12/25 08:45:10;;;;;;;5.97;3.50;;;;;;;0.36;57.14;100453.63;4932396;29;20518;-89
2022/12/25 08:48:02;;;;;;;5.60;3.15;;;;;;;1.11;57.03;100565.22;4919597;29;20097;-80
2022/12/25 08:50:29;;;;;;;5.40;3.60;;;;;;;1.32;57.00;100607.94;4910467;29;20040;-83
2022/12/25 08:52:56;;;;;;;5.05;3.55;;;;;;;0.99;56.89;100555.31;4936539;29;20040;-81
2022/12/25 08:55:25;;;;;;;4.65;3.30;;;;;;;1.31;56.99;100609.66;4939126;29;20438;-81
2022/12/25 08:57:52;;;;;;;5.95;3.50;;;;;;;0.74;57.35;100517.53;4930109;29;20146;-81
2022/12/25 09:00:26;;;;;;;7.75;3.67;;;;;;;1.22;57.08;100570.78;4910615;29;20600;-83
2022/12/25 09:02:52;;;;;;;4.47;3.38;;;;;;;1.16;56.93;100567.97;4902386;29;20493;-82
2022/12/25 09:05:21;;;;;;;5.65;3.88;;;;;;;0.99;56.82;100562.16;4904519;29;20044;-80
2022/12/25 09:07:57;;;;;;;5.95;3.78;;;;;;;1.05;56.64;100572.63;4916670;29;20044;-88
2022/12/25 09:11:07;;;;;;;5.15;3.38;;;;;;;1.28;56.50;100635.16;4907127;29;20040;-82
2022/12/25 09:13:35;;;;;;;5.00;3.60;;;;;;;-0.21;56.87;100389.72;4900458;29;20048;-81
2022/12/25 09:16:10;;;;;;;6.18;3.30;;;;;;;1.16;56.45;100599.63;4920294;29;20049;-79
2022/12/25 09:18:39;;;;;;;4.80;3.25;;;;;;;1.11;56.68;100611.38;4907449;29;20044;-79
2022/12/25 09:21:11;;;;;;;7.47;4.75;;;;;;;0.73;56.40;100549.09;4921781;29;20040;-80
2022/12/25 09:23:37;;;;;;;5.57;3.67;;;;;;;1.14;55.92;100639.69;4923053;29;20044;-80
2022/12/25 09:26:09;;;;;;;7.57;3.50;;;;;;;0.99;56.82;100609.16;4922464;29;20147;-80
2022/12/25 09:28:38;;;;;;;5.35;3.47;;;;;;;1.13;56.33;100635.38;4904331;29;20044;-80
2022/12/25 09:31:05;;;;;;;5.32;3.38;;;;;;;0.96;56.61;100605.59;4904216;29;20048;-81
2022/12/25 09:33:31;;;;;;;5.30;3.80;;;;;;;1.19;55.83;100650.16;4887940;29;20040;-79
2022/12/25 09:35:59;;;;;;;3.95;3.10;;;;;;;1.16;56.33;100652.56;4902871;29;20514;-84
2022/12/25 09:38:25;;;;;;;6.03;3.30;;;;;;;0.87;56.43;100600.94;4903542;29;20041;-80
2022/12/25 09:41:36;;;;;;;5.28;3.47;;;;;;;1.19;56.44;100656.16;4903626;29;20042;-81
2022/12/25 09:44:37;;;;;;;5.18;3.50;;;;;;;1.27;56.05;100668.41;4914068;29;20045;-80
2022/12/25 09:51:42;;;;;;;5.70;3.55;;;;;;;1.26;56.22;100661.53;4900723;29;20040;-84
2022/12/25 09:54:54;;;;;;;6.85;3.15;;;;;;;1.32;56.24;100657.56;4887199;29;20139;-80
2022/12/25 09:57:53;;;;;;;6.88;3.05;;;;;;;1.31;55.85;100657.47;4899233;29;20123;-82
2022/12/25 10:01:17;;;;;;;4.78;2.90;;;;;;;1.26;55.86;100652.16;4889981;29;20397;-82
2022/12/25 10:08:35;;;;;;;6.38;3.10;;;;;;;1.32;56.24;100661.81;4852165;29;20049;-82
2022/12/25 10:11:16;;;;;;;6.28;3.50;;;;;;;1.35;55.73;100677.31;4869457;29;20055;-81
2022/12/25 10:14:15;;;;;;;5.15;2.83;;;;;;;1.09;55.81;100642.88;4893178;29;20044;-81
2022/12/25 10:17:19;;;;;;;5.97;3.45;;;;;;;1.28;55.93;100672.75;4917554;29;20045;-81
2022/12/25 10:20:34;;;;;;;4.85;3.17;;;;;;;1.31;55.35;100676.34;4889570;29;20056;-81
2022/12/25 10:23:05;;;;;;;5.25;3.15;;;;;;;0.92;55.68;100594.31;4902904;29;20060;-81
2022/12/25 10:25:31;;;;;;;7.07;3.17;;;;;;;1.19;55.89;100630.53;4902511;29;20077;-83
2022/12/25 10:28:14;;;;;;;5.28;3.00;;;;;;;0.71;55.72;100558.41;4887785;29;20052;-80
2022/12/25 10:30:44;;;;;;;6.43;3.65;;;;;;;1.49;55.54;100693.31;4886309;29;20084;-82
2022/12/25 10:33:14;;;;;;;7.82;4.65;;;;;;;1.42;55.71;100681.91;4918339;29;20040;-84
2022/12/25 10:35:44;;;;;;;5.93;3.40;;;;;;;1.07;55.59;100635.09;4901490;29;20068;-83
2022/12/25 10:38:11;;;;;;;6.20;3.70;;;;;;;1.54;55.82;100704.66;4900120;29;20151;-82
2022/12/25 10:41:02;;;;;;;5.68;3.67;;;;;;;1.52;55.37;100701.13;4901163;29;20054;-81
2022/12/25 10:43:51;;;;;;;6.28;3.50;;;;;;;1.51;55.30;100709.66;4901916;29;20545;-82
2022/12/25 10:46:19;;;;;;;5.63;3.92;;;;;;;1.42;54.97;100707.56;4921762;29;20111;-84
2022/12/25 10:48:55;;;;;;;5.60;3.28;;;;;;;1.44;55.38;100711.03;4920849;29;20132;-83
2022/12/25 10:51:32;;;;;;;5.60;3.45;;;;;;;1.26;55.17;100667.56;4886591;29;20410;-84
2022/12/25 10:54:28;;;;;;;4.38;3.00;;;;;;;0.44;55.14;100543.56;4899687;29;20533;-84
2022/12/25 10:56:57;;;;;;;4.47;3.10;;;;;;;1.45;55.63;100707.66;4914387;29;20095;-79
2022/12/25 10:59:37;;;;;;;4.95;3.35;;;;;;;1.00;55.06;100627.97;4901720;29;20104;-82
2022/12/25 11:02:26;;;;;;;;;;;;;;;;;;;;;
2022/12/25 11:05:01;;;;;;;5.63;3.55;;;;;;;1.33;54.79;100702.88;4901823;29;20067;-84
2022/12/25 11:07:31;;;;;;;4.25;3.15;;;;;;;0.73;54.96;100634.50;4900524;29;20139;-81
2022/12/25 11:10:23;;;;;;;5.35;3.78;;;;;;;0.43;55.10;100590.47;4902318;29;20051;-80
2022/12/25 11:12:53;;;;;;;5.78;2.83;;;;;;;0.69;54.93;100639.44;4901857;29;20045;-82
2022/12/25 11:15:36;;;;;;;5.80;3.35;;;;;;;1.14;55.25;100713.16;4888113;29;20060;-83
2022/12/25 11:18:24;;;;;;;5.22;3.05;;;;;;;0.80;55.23;100661.28;4906388;29;20044;-82
2022/12/25 11:21:03;;;;;;;5.07;3.10;;;;;;;0.72;55.06;100657.53;4908212;29;20077;-82
2022/12/25 11:23:33;;;;;;;5.97;3.50;;;;;;;-0.38;55.20;100469.13;4924406;29;20103;-82
2022/12/25 11:26:08;;;;;;;4.43;3.47;;;;;;;0.34;55.62;100567.91;4912607;29;20044;-82
2022/12/25 11:28:40;;;;;;;5.75;3.70;;;;;;;0.55;55.11;100598.69;4874908;29;20052;-81
2022/12/25 11:31:23;;;;;;;4.55;3.15;;;;;;;0.70;55.21;100618.13;4903775;29;20084;-80
2022/12/25 11:34:06;;;;;;;3.75;2.83;;;;;;;1.22;54.45;100728.88;4901157;29;20418;-82
2022/12/25 11:36:51;;;;;;;6.15;3.10;;;;;;;1.00;54.91;100686.91;4917631;29;20546;-82
2022/12/25 11:39:28;;;;;;;5.05;3.20;;;;;;;1.31;54.84;100724.16;4904970;29;20075;-82
2022/12/25 11:42:14;;;;;;;7.75;4.13;;;;;;;0.96;54.84;100659.41;4919953;29;20048;-83
2022/12/25 11:48:44;;;;;;;13.57;5.20;;;;;;;0.55;54.90;100616.63;4909547;29;20116;-84
2022/12/25 11:51:14;;;;;;;13.52;6.68;;;;;;;1.28;54.91;100736.84;4904687;29;20060;-84
2022/12/25 11:53:42;;;;;;;10.32;4.70;;;;;;;1.31;55.13;100735.31;4909455;29;20048;-82
2022/12/25 11:56:13;;;;;;;8.02;4.57;;;;;;;1.28;54.72;100744.53;4930580;29;20076;-82
2022/12/25 11:58:48;;;;;;;6.47;3.90;;;;;;;1.29;54.94;100738.59;4899556;29;20028;-82
2022/12/25 12:01:34;;;;;;;8.60;4.75;;;;;;;1.25;54.77;100749.53;4911965;29;20056;-83
2022/12/25 12:04:16;;;;;;;7.18;4.82;;;;;;;1.15;54.96;100731.19;4908642;29;20056;-86
2022/12/25 12:07:10;;;;;;;8.27;5.30;;;;;;;1.31;55.14;100753.28;4907922;29;20040;-82
2022/12/25 12:10:20;;;;;;;12.43;6.05;;;;;;;1.22;54.95;100759.66;4907565;29;20554;-83
2022/12/25 12:13:26;;;;;;;10.75;6.78;;;;;;;1.15;55.31;100751.72;4912531;29;20051;-82
2022/12/25 12:15:53;;;;;;;11.05;6.95;;;;;;;0.83;55.11;100692.16;4913284;29;20139;-83
2022/12/25 12:18:25;;;;;;;7.68;4.90;;;;;;;1.27;55.44;100760.75;4912669;29;20045;-83
2022/12/25 12:21:09;;;;;;;5.90;3.80;;;;;;;0.20;54.56;100604.81;4911457;29;20045;-84
2022/12/25 12:24:11;;;;;;;6.72;3.60;;;;;;;1.33;55.14;100776.41;4898515;29;20068;-82
2022/12/25 12:26:45;;;;;;;8.02;3.80;;;;;;;0.88;55.11;100700.94;4898392;29;20053;-86
2022/12/25 12:29:26;;;;;;;4.95;3.67;;;;;;;-0.18;54.95;100536.56;4886290;29;20045;-82
2022/12/25 12:32:00;;;;;;;6.55;3.78;;;;;;;0.63;54.88;100667.34;4914700;29;20045;-82
2022/12/25 12:34:35;;;;;;;7.75;4.85;;;;;;;1.33;54.69;100786.66;4910937;29;20037;-83
2022/12/25 12:37:13;;;;;;;5.63;3.75;;;;;;;1.25;54.53;100783.75;4895112;29;20135;-81
2022/12/25 12:39:41;;;;;;;5.32;3.60;;;;;;;1.13;54.55;100780.63;4913329;29;20037;-82
2022/12/25 12:42:18;;;;;;;4.65;3.45;;;;;;;0.66;54.88;100695.66;4898116;29;20049;-80
2022/12/25 12:44:52;;;;;;;5.90;3.70;;;;;;;0.90;54.82;100736.88;4902136;29;20057;-81
2022/12/25 12:47:51;;;;;;;9.30;3.97;;;;;;;1.27;54.83;100794.97;4873343;29;20084;-85
2022/12/25 12:50:41;;;;;;;6.82;4.50;;;;;;;0.88;55.06;100729.16;4883479;29;20048;-81
2022/12/25 12:53:25;;;;;;;6.50;4.05;;;;;;;0.89;54.60;100717.19;4894237;29;20044;-82
2022/12/25 12:55:52;;;;;;;4.68;3.58;;;;;;;0.74;54.21;100715.69;4893709;29;20096;-83
2022/12/25 12:58:44;;;;;;;4.88;3.78;;;;;;;0.26;54.75;100651.16;4901662;29;20108;-85
2022/12/25 13:01:47;;;;;;;6.03;3.90;;;;;;;1.12;55.06;100807.97;4878660;29;20047;-82
2022/12/25 13:04:29;;;;;;;6.10;3.72;;;;;;;1.05;55.07;100806.81;4908274;29;20056;-84
2022/12/25 13:07:17;;;;;;;8.07;4.20;;;;;;;0.38;54.63;100702.97;4891270;29;20049;-82
2022/12/25 13:10:07;;;;;;;5.07;3.60;;;;;;;0.97;54.94;100809.84;4902692;29;20155;-83
2022/12/25 13:12:38;;;;;;;5.43;3.67;;;;;;;0.19;54.79;100683.28;4901388;29;20095;-80
2022/12/25 13:15:11;;;;;;;;;;;;;;;0.92;54.70;100814.72;4918650;29;20048;-83
2022/12/25 13:17:47;;;;;;;6.45;4.32;;;;;;;-0.06;55.04;100646.28;4905201;29;19951;-81
2022/12/25 13:20:33;;;;;;;7.90;3.92;;;;;;;0.84;54.74;100805.81;4901770;29;20044;-81
2022/12/25 13:22:59;;;;;;;6.13;3.83;;;;;;;0.68;54.65;100782.03;4900377;29;20041;-80
2022/12/25 13:25:31;;;;;;;6.03;4.22;;;;;;;0.71;54.61;100789.00;4883274;29;20439;-83
2022/12/25 13:27:58;;;;;;;6.50;4.28;;;;;;;0.75;55.06;100796.03;4881576;29;20040;-82
2022/12/25 13:30:27;;;;;;;6.43;4.00;;;;;;;0.63;54.71;100778.41;4881720;29;20047;-81
2022/12/25 13:32:58;;;;;;;7.70;3.85;;;;;;;0.18;54.69;100711.38;4883688;29;20044;-84
2022/12/25 13:35:26;;;;;;;5.47;3.95;;;;;;;0.89;54.70;100820.59;4886681;29;20056;-82
2022/12/25 13:38:39;;;;;;;5.57;3.33;;;;;;;-0.19;54.74;100651.63;4886822;29;20075;-82
2022/12/25 13:52:12;;;;;;;7.03;3.60;;;;;;;-0.61;54.67;100629.13;4878876;29;20053;-83
2022/12/25 13:54:39;;;;;;;6.28;3.72;;;;;;;0.04;54.71;100736.31;4892912;29;20060;-83
2022/12/25 13:57:12;;;;;;;6.90;3.90;;;;;;;0.34;54.95;100784.66;4901948;29;20139;-84
2022/12/25 13:59:56;;;;;;;7.32;3.65;;;;;;;0.77;55.06;100849.91;4883127;29;20096;-83
2022/12/25 14:02:29;;;;;;;5.40;3.70;;;;;;;-0.16;54.60;100690.16;4884694;29;20041;-84
2022/12/25 14:04:55;;;;;;;5.75;3.25;;;;;;;-0.22;55.44;100689.84;4879342;29;20519;-81
2022/12/25 14:07:23;;;;;;;4.50;3.30;;;;;;;0.65;54.55;100834.81;4883067;29;20126;-81
2022/12/25 14:09:57;;;;;;;5.13;3.50;;;;;;;0.39;54.27;100807.16;4929441;29;20098;-82
2022/12/25 14:12:27;;;;;;;6.20;3.42;;;;;;;0.53;54.85;100829.97;4899547;29;20135;-84
2022/12/25 14:14:59;;;;;;;7.53;3.50;;;;;;;0.31;54.59;100813.56;4883068;29;20040;-84
2022/12/25 14:17:26;;;;;;;6.25;3.97;;;;;;;0.23;54.28;100790.16;4901240;29;20070;-84
2022/12/25 14:20:39;;;;;;;5.35;3.78;;;;;;;-0.44;54.37;100696.44;4916215;29;20067;-84
2022/12/25 14:23:55;;;;;;;9.05;3.83;;;;;;;-0.10;54.32;100754.41;4915662;29;20084;-82
2022/12/25 14:27:07;;;;;;;6.25;3.45;;;;;;;-0.78;54.46;100633.41;4916303;29;20055;-82
2022/12/25 14:33:36;;;;;;;6.80;4.00;;;;;;;0.74;54.21;100909.56;4888778;29;20718;-82
2022/12/25 14:36:06;;;;;;;9.98;4.22;;;;;;;0.74;54.71;100887.38;4903138;29;20078;-80
2022/12/25 14:39:21;;;;;;;6.93;4.32;;;;;;;0.74;54.52;100894.19;4918985;29;20050;-81
2022/12/25 14:42:39;;;;;;;8.15;4.50;;;;;;;0.43;54.18;100860.28;4918691;29;20056;-82
2022/12/25 14:46:06;;;;;;;7.93;4.47;;;;;;;0.51;54.38;100885.38;4814180;29;20061;-83
2022/12/25 14:59:17;;;;;;;7.18;4.75;;;;;;;-1.01;54.72;100670.56;5322972;23;20533;-85
2022/12/25 15:01:50;;;;;;;9.27;4.50;;;;;;;-0.67;54.69;100733.66;4924537;29;20051;-84
2022/12/25 15:04:26;;;;;;;7.15;4.05;;;;;;;-0.77;54.45;100739.94;4904914;29;20525;-83
2022/12/25 15:07:14;;;;;;;8.30;4.68;;;;;;;-0.73;54.68;100749.53;4908914;29;20036;-83
2022/12/25 15:09:58;;;;;;;8.73;4.82;;;;;;;0.11;54.97;100885.16;4916407;29;20060;-84
2022/12/25 15:12:30;;;;;;;11.52;5.15;;;;;;;0.10;54.99;100913.25;4902425;29;20071;-80
2022/12/25 15:15:00;;;;;;;11.10;4.95;;;;;;;-0.31;54.63;100849.72;4886176;29;20043;-83
2022/12/25 15:17:51;;;;;;;10.35;4.82;;;;;;;-0.49;54.83;100810.41;4885456;29;20135;-83
2022/12/25 15:20:42;;;;;;;8.77;4.85;;;;;;;-1.41;54.67;100670.22;4901028;29;20052;-84
2022/12/25 15:23:17;;;;;;;10.02;4.85;;;;;;;-1.07;54.93;100727.31;4917478;29;20051;-83
2022/12/25 15:25:47;;;;;;;7.30;4.70;;;;;;;-0.67;54.79;100790.75;4900348;29;20119;-85
2022/12/25 15:29:28;;;;;;;6.38;4.13;;;;;;;-0.20;54.03;100905.72;4885769;29;20616;-84
2022/12/25 15:31:54;;;;;;;5.80;3.97;;;;;;;-1.26;54.96;100767.22;4919611;29;20040;-82
2022/12/25 15:39:04;;;;;;;7.90;3.75;;;;;;;-0.43;54.92;100932.63;4908546;29;20052;-82
2022/12/25 15:42:25;;;;;;;7.50;4.40;;;;;;;-1.95;55.12;100680.06;4885614;29;20509;-80
2022/12/25 15:44:54;;;;;;;7.88;4.78;;;;;;;-1.33;55.07;100823.84;4898741;29;20059;-83
2022/12/25 15:47:23;;;;;;;;;;;;;;;-0.67;55.44;100922.84;4900234;29;20051;-81